createdAt,value
2018-02-09T00:00:03.942Z,426.73
2018-02-09T00:02:31.397Z,413.42
2018-02-09T00:04:58.851Z,438.35
2018-02-09T00:07:26.303Z,424.35
2018-02-09T00:09:53.765Z,450.27
2018-02-09T00:12:21.325Z,433.35
2018-02-09T00:14:48.781Z,404.58
2018-02-09T00:17:16.229Z,486.75
2018-02-09T00:19:43.794Z,477.05
2018-02-09T00:22:13.030Z,473.52
2018-02-09T00:24:41.374Z,469.48
2018-02-09T00:27:08.931Z,464.20
2018-02-09T00:29:36.386Z,440.48
2018-02-09T00:32:03.834Z,461.42
2018-02-09T00:34:31.290Z,458.75
2018-02-09T00:36:58.749Z,449.90
2018-02-09T00:39:26.373Z,439.10
2018-02-09T00:41:53.814Z,470.83
2018-02-09T00:44:22.042Z,503.70
2018-02-09T00:46:49.496Z,474.17
2018-02-09T00:49:16.949Z,472.10
2018-02-09T00:51:44.398Z,464.02
2018-02-09T00:54:11.851Z,465.10
2018-02-09T00:56:39.330Z,491.45
2018-02-09T00:59:06.887Z,489.85
2018-02-09T01:01:34.648Z,473.35
2018-02-09T01:04:02.102Z,438.75
2018-02-09T01:06:29.557Z,433.05
2018-02-09T01:08:57.129Z,444.48
2018-02-09T01:11:24.582Z,456.45
2018-02-09T01:13:52.142Z,449.27
2018-02-09T01:16:19.897Z,448.60
2018-02-09T01:18:47.357Z,454.33
2018-02-09T01:21:14.803Z,439.17
2018-02-09T01:23:42.263Z,420.50
2018-02-09T01:26:09.735Z,440.12
2018-02-09T01:28:37.189Z,420.33
2018-02-09T01:31:04.652Z,418.08
2018-02-09T01:33:32.097Z,417.60
2018-02-09T01:35:59.555Z,411.33
2018-02-09T01:38:27.119Z,424.10
2018-02-09T01:40:54.566Z,420.48
2018-02-09T01:43:22.426Z,427.13
2018-02-09T01:45:49.877Z,428.25
2018-02-09T01:48:17.355Z,424.50
2018-02-09T01:50:44.814Z,420.73
2018-02-09T01:53:12.371Z,423.25
2018-02-09T01:55:39.942Z,403.05
2018-02-09T01:58:07.382Z,414.98
2018-02-09T02:00:34.924Z,411.92
2018-02-09T02:03:02.406Z,405.15
2018-02-09T02:05:29.962Z,392.90
2018-02-09T02:07:57.522Z,403.62
2018-02-09T02:10:25.080Z,385.25
2018-02-09T02:12:52.539Z,390.77
2018-02-09T02:15:19.999Z,387.77
2018-02-09T02:17:47.646Z,389.20
2018-02-09T02:20:15.111Z,388.70
2018-02-09T02:22:42.666Z,373.13
2018-02-09T02:25:10.122Z,374.75
2018-02-09T02:27:37.930Z,373.08
2018-02-09T02:30:06.174Z,367.52
2018-02-09T02:32:33.623Z,375.23
2018-02-09T02:35:01.083Z,369.35
2018-02-09T02:37:28.531Z,382.55
2018-02-09T02:39:56.093Z,351.58
2018-02-09T02:42:23.538Z,385.50
2018-02-09T02:44:51.732Z,362.30
2018-02-09T02:47:19.174Z,360.25
2018-02-09T02:49:46.950Z,368.55
2018-02-09T02:52:14.399Z,387.15
2018-02-09T02:54:41.953Z,342.33
2018-02-09T02:57:09.412Z,376.52
2018-02-09T02:59:36.970Z,357.48
2018-02-09T03:02:04.428Z,363.25
2018-02-09T03:04:31.999Z,356.02
2018-02-09T03:06:59.549Z,365.90
2018-02-09T03:09:27.009Z,366.10
2018-02-09T03:11:54.670Z,323.98
2018-02-09T03:14:22.230Z,327.10
2018-02-09T03:16:49.792Z,333.33
2018-02-09T03:19:18.012Z,333.50
2018-02-09T03:21:46.240Z,361.10
2018-02-09T03:24:13.796Z,375.83
2018-02-09T03:26:41.238Z,369.52
2018-02-09T03:29:08.707Z,391.95
2018-02-09T03:31:36.169Z,395.17
2018-02-09T03:34:03.727Z,390.42
2018-02-09T03:36:31.286Z,393.65
2018-02-09T03:38:58.847Z,383.17
2018-02-09T03:41:26.402Z,391.10
2018-02-09T03:43:53.857Z,385.63
2018-02-09T03:46:21.318Z,310.88
2018-02-09T03:48:48.775Z,384.98
2018-02-09T03:51:16.329Z,382.15
2018-02-09T03:53:43.802Z,372.10
2018-02-09T03:56:11.302Z,386.98
2018-02-09T03:58:38.706Z,398.75
2018-02-09T04:01:06.168Z,376.48
2018-02-09T04:03:33.702Z,373.95
2018-02-09T04:06:01.171Z,363.08
2018-02-09T04:08:28.633Z,376.65
2018-02-09T04:10:56.202Z,399.85
2018-02-09T04:13:23.746Z,448.08
2018-02-09T04:15:51.200Z,464.65
2018-02-09T04:18:18.650Z,464.45
2018-02-09T04:20:46.124Z,401.75
2018-02-09T04:23:13.690Z,546.53
2018-02-09T04:25:41.152Z,537.08
2018-02-09T04:28:09.409Z,381.98
2018-02-09T04:30:37.527Z,448.23
2018-02-09T04:33:05.731Z,358.50
2018-02-09T04:35:33.222Z,525.08
2018-02-09T04:38:00.674Z,542.67
2018-02-09T04:40:28.237Z,537.17
2018-02-09T04:42:55.790Z,537.85
2018-02-09T04:45:23.358Z,534.35
2018-02-09T04:47:51.050Z,542.65
2018-02-09T04:50:19.282Z,532.17
2018-02-09T04:52:46.731Z,534.30
2018-02-09T04:55:14.278Z,536.83
2018-02-09T04:57:41.758Z,541.55
2018-02-09T05:00:09.214Z,541.30
2018-02-09T05:02:36.779Z,536.75
2018-02-09T05:05:04.247Z,530.78
2018-02-09T05:07:31.798Z,450.77
2018-02-09T05:09:59.351Z,531.75
2018-02-09T05:12:26.807Z,534.75
2018-02-09T05:14:54.362Z,542.22
2018-02-09T05:17:22.430Z,535.80
2018-02-09T05:19:49.886Z,528.80
2018-02-09T05:22:17.350Z,533.20
2018-02-09T05:24:44.810Z,520.92
2018-02-09T05:27:12.711Z,534.10
2018-02-09T05:29:40.946Z,524.92
2018-02-09T05:32:08.390Z,524.80
2018-02-09T05:34:35.845Z,522.85
2018-02-09T05:37:03.325Z,523.65
2018-02-09T05:39:30.782Z,523.55
2018-02-09T05:41:58.257Z,523.10
2018-02-09T05:44:25.706Z,521.83
2018-02-09T05:46:53.162Z,519.55
2018-02-09T05:49:20.817Z,517.55
2018-02-09T05:51:48.272Z,531.80
2018-02-09T05:54:15.823Z,526.20
2018-02-09T05:56:43.466Z,527.15
2018-02-09T05:59:10.943Z,515.55
2018-02-09T06:01:38.681Z,511.52
2018-02-09T06:04:06.113Z,516.00
2018-02-09T06:06:34.230Z,505.83
2018-02-09T06:09:01.686Z,506.10
2018-02-09T06:11:29.146Z,529.97
2018-02-09T06:13:56.598Z,516.10
2018-02-09T06:16:24.057Z,518.85
2018-02-09T06:18:51.514Z,535.08
2018-02-09T06:21:19.490Z,514.15
2018-02-09T06:23:47.125Z,506.05
2018-02-09T06:26:14.571Z,529.33
2018-02-09T06:28:42.028Z,516.97
2018-02-09T06:31:09.521Z,514.65
2018-02-09T06:33:37.075Z,516.72
2018-02-09T06:36:04.629Z,515.85
2018-02-09T06:38:32.818Z,503.52
2018-02-09T06:41:00.271Z,514.55
2018-02-09T06:43:27.827Z,504.33
2018-02-09T06:45:55.384Z,505.75
2018-02-09T06:48:23.654Z,413.23
2018-02-09T06:50:51.118Z,504.30
2018-02-09T06:53:18.570Z,510.67
2018-02-09T06:55:46.030Z,508.08
2018-02-09T06:58:13.589Z,498.92
2018-02-09T07:00:41.081Z,504.38
2018-02-09T07:03:08.602Z,505.92
2018-02-09T07:05:36.058Z,513.55
2018-02-09T07:08:03.506Z,510.85
2018-02-09T07:10:31.015Z,505.40
2018-02-09T07:12:59.258Z,515.67
2018-02-09T07:15:26.810Z,509.77
2018-02-09T07:17:54.682Z,513.55
2018-02-09T07:20:22.146Z,505.85
2018-02-09T07:22:49.726Z,511.42
2018-02-09T07:25:17.947Z,505.92
2018-02-09T07:27:45.392Z,509.17
2018-02-09T07:30:12.852Z,501.27
2018-02-09T07:32:40.339Z,506.52
2018-02-09T07:35:07.797Z,506.52
2018-02-09T07:37:35.246Z,515.08
2018-02-09T07:40:02.887Z,504.87
2018-02-09T07:42:30.366Z,513.87
2018-02-09T07:44:57.926Z,524.05
2018-02-09T07:47:25.872Z,524.45
2018-02-09T07:49:53.447Z,527.60
2018-02-09T07:52:20.907Z,529.03
2018-02-09T07:54:48.362Z,532.22
2018-02-09T07:57:15.823Z,528.65
2018-02-09T07:59:43.270Z,526.08
2018-02-09T08:02:10.727Z,538.60
2018-02-09T08:04:38.195Z,544.72
2018-02-09T08:07:05.967Z,556.67
2018-02-09T08:09:33.419Z,554.10
2018-02-09T08:12:01.027Z,559.60
2018-02-09T08:14:28.430Z,578.22
2018-02-09T08:16:55.894Z,592.65
2018-02-09T08:19:23.346Z,581.63
2018-02-09T08:21:50.837Z,592.47
2018-02-09T08:24:18.374Z,590.62
2018-02-09T08:26:46.039Z,603.58
2018-02-09T08:29:13.495Z,634.78
2018-02-09T08:31:41.116Z,635.55
2018-02-09T08:34:08.573Z,637.33
2018-02-09T08:36:36.054Z,655.47
2018-02-09T08:39:03.514Z,653.37
2018-02-09T08:41:31.781Z,641.90
2018-02-09T08:43:59.251Z,643.13
2018-02-09T08:46:26.815Z,634.30
2018-02-09T08:48:54.396Z,629.78
2018-02-09T08:51:22.638Z,628.20
2018-02-09T08:53:50.231Z,620.57
2018-02-09T08:56:17.679Z,629.80
2018-02-09T08:58:45.214Z,636.00
2018-02-09T09:01:12.695Z,634.30
2018-02-09T09:03:41.792Z,622.47
2018-02-09T09:06:10.043Z,644.97
2018-02-09T09:08:37.502Z,650.62
2018-02-09T09:11:05.070Z,650.83
2018-02-09T09:13:32.531Z,644.35
2018-02-09T09:16:00.003Z,645.03
2018-02-09T09:18:28.129Z,652.77
2018-02-09T09:20:55.711Z,647.53
2018-02-09T09:23:23.988Z,647.77
2018-02-09T09:25:51.739Z,665.47
2018-02-09T09:28:19.211Z,670.83
2018-02-09T09:30:46.666Z,679.57
2018-02-09T09:33:14.119Z,679.77
2018-02-09T09:35:41.579Z,688.93
2018-02-09T09:38:09.205Z,677.20
2018-02-09T09:40:36.647Z,692.67
2018-02-09T09:43:04.103Z,697.93
2018-02-09T09:45:31.566Z,711.00
2018-02-09T09:47:59.059Z,730.70
2018-02-09T09:50:26.625Z,734.97
2018-02-09T09:52:54.074Z,729.60
2018-02-09T09:55:21.534Z,723.77
2018-02-09T09:57:48.994Z,723.60
2018-02-09T10:00:16.466Z,740.23
2018-02-09T10:02:43.934Z,741.60
2018-02-09T10:05:12.188Z,727.33
2018-02-09T10:07:39.642Z,733.73
2018-02-09T10:10:07.105Z,732.27
2018-02-09T10:12:34.558Z,732.67
2018-02-09T10:15:02.014Z,739.57
2018-02-09T10:17:29.491Z,751.63
2018-02-09T10:19:56.946Z,751.17
2018-02-09T10:22:24.395Z,750.60
2018-02-09T10:24:51.852Z,749.77
2018-02-09T10:27:19.298Z,737.40
2018-02-09T10:29:46.761Z,718.40
2018-02-09T10:32:14.253Z,720.37
2018-02-09T10:34:41.727Z,717.20
2018-02-09T10:37:09.946Z,723.37
2018-02-09T10:39:37.390Z,716.27
2018-02-09T10:42:04.846Z,718.07
2018-02-09T10:44:32.325Z,723.37
2018-02-09T10:46:59.774Z,721.13
2018-02-09T10:49:27.234Z,726.30
2018-02-09T10:51:54.731Z,730.50
2018-02-09T10:54:22.927Z,729.00
2018-02-09T10:56:50.383Z,752.40
2018-02-09T10:59:17.839Z,747.57
2018-02-09T11:01:45.316Z,755.67
2018-02-09T11:04:12.742Z,769.20
2018-02-09T11:06:40.215Z,741.87
2018-02-09T11:09:07.767Z,751.50
2018-02-09T11:11:35.202Z,762.60
2018-02-09T11:14:02.658Z,768.43
2018-02-09T11:16:30.867Z,750.77
2018-02-09T11:18:58.330Z,747.60
2018-02-09T11:21:25.765Z,765.87
2018-02-09T11:23:53.222Z,769.63
2018-02-09T11:26:20.661Z,771.47
2018-02-09T11:28:48.138Z,754.57
2018-02-09T11:31:16.191Z,749.73
2018-02-09T11:33:43.691Z,756.70
2018-02-09T11:36:11.193Z,778.53
2018-02-09T11:38:39.111Z,794.93
2018-02-09T11:41:06.561Z,781.83
2018-02-09T11:43:34.060Z,803.23
2018-02-09T11:46:01.768Z,792.93
2018-02-09T11:48:29.774Z,783.93
2018-02-09T11:50:57.406Z,760.03
2018-02-09T11:53:24.904Z,752.27
2018-02-09T11:55:52.441Z,763.47
2018-02-09T11:58:19.922Z,756.03
2018-02-09T12:00:47.368Z,753.33
2018-02-09T12:03:14.887Z,756.63
2018-02-09T12:05:42.367Z,764.10
2018-02-09T12:08:09.823Z,762.87
2018-02-09T12:10:37.278Z,745.07
2018-02-09T12:13:04.735Z,754.93
2018-02-09T12:15:32.199Z,757.40
2018-02-09T12:17:59.687Z,757.93
2018-02-09T12:20:27.964Z,772.93
2018-02-09T12:22:55.408Z,758.10
2018-02-09T12:25:22.931Z,751.93
2018-02-09T12:27:50.386Z,760.20
2018-02-09T12:30:17.963Z,766.40
2018-02-09T12:32:45.418Z,768.33
2018-02-09T12:35:12.987Z,782.50
2018-02-09T12:37:40.435Z,782.73
2018-02-09T12:40:07.881Z,777.33
2018-02-09T12:42:35.334Z,779.77
2018-02-09T12:45:02.786Z,783.90
2018-02-09T12:47:30.245Z,799.80
2018-02-09T12:49:57.723Z,810.13
2018-02-09T12:52:25.189Z,800.70
2018-02-09T12:54:53.013Z,797.77
2018-02-09T12:57:20.449Z,796.23
2018-02-09T12:59:47.924Z,796.23
2018-02-09T13:02:15.360Z,795.77
2018-02-09T13:04:43.695Z,798.87
2018-02-09T13:07:11.143Z,785.83
2018-02-09T13:09:38.595Z,800.07
2018-02-09T13:12:06.074Z,788.33
2018-02-09T13:14:45.590Z,789.87
2018-02-09T13:17:13.036Z,802.60
2018-02-09T13:19:40.510Z,802.17
2018-02-09T13:22:07.967Z,798.47
2018-02-09T13:24:36.238Z,802.23
2018-02-09T13:27:03.699Z,816.80
2018-02-09T13:29:31.180Z,798.20
2018-02-09T13:31:58.714Z,794.03
2018-02-09T13:34:26.170Z,796.67
2018-02-09T13:40:02.426Z,785.73
2018-02-09T13:42:29.902Z,782.23
2018-02-09T13:44:57.354Z,800.40
2018-02-09T13:47:24.806Z,794.20
2018-02-09T13:49:52.264Z,780.90
2018-02-09T13:52:19.765Z,771.97
2018-02-09T13:54:47.206Z,767.30
2018-02-09T13:57:14.681Z,751.57
2018-02-09T13:59:42.209Z,748.80
2018-02-09T14:02:09.654Z,728.83
2018-02-09T14:04:37.114Z,706.77
2018-02-09T14:07:04.586Z,703.40
2018-02-09T14:09:32.091Z,695.07
2018-02-09T14:11:59.550Z,711.03
2018-02-09T14:14:27.047Z,708.83
2018-02-09T14:16:54.496Z,703.57
2018-02-09T14:19:22.378Z,702.70
2018-02-09T14:21:49.835Z,670.58
2018-02-09T14:24:17.282Z,668.33
2018-02-09T14:26:44.761Z,666.03
2018-02-09T14:29:12.307Z,661.83
2018-02-09T14:31:39.777Z,661.40
2018-02-09T14:34:07.317Z,659.10
2018-02-09T14:36:34.778Z,654.42
2018-02-09T14:39:02.330Z,656.22
2018-02-09T14:41:29.782Z,661.50
2018-02-09T14:43:57.351Z,655.55
2018-02-09T14:46:24.819Z,655.37
2018-02-09T14:48:52.279Z,647.05
2018-02-09T14:51:19.751Z,647.33
2018-02-09T14:53:47.970Z,647.22
2018-02-09T14:56:15.457Z,647.58
2018-02-09T14:58:43.110Z,643.60
2018-02-09T15:01:10.691Z,649.42
2018-02-09T15:03:38.142Z,642.33
2018-02-09T15:06:05.606Z,641.88
2018-02-09T15:08:33.120Z,645.85
2018-02-09T15:11:00.699Z,642.97
2018-02-09T15:13:28.157Z,656.75
2018-02-09T15:15:55.714Z,640.80
2018-02-09T15:18:23.170Z,642.20
2018-02-09T15:20:50.635Z,657.03
2018-02-09T15:23:18.086Z,639.10
2018-02-09T15:25:45.550Z,644.10
2018-02-09T15:28:12.998Z,643.60
2018-02-09T15:30:40.458Z,637.88
2018-02-09T15:33:07.921Z,640.60
2018-02-09T15:35:35.478Z,656.30
2018-02-09T15:38:03.035Z,638.25
2018-02-09T15:40:30.501Z,645.42
2018-02-09T15:42:57.976Z,641.95
2018-02-09T15:45:26.185Z,647.50
2018-02-09T15:47:53.661Z,651.78
2018-02-09T15:50:21.153Z,648.30
2018-02-09T15:52:48.594Z,648.75
2018-02-09T15:55:16.160Z,642.30
2018-02-09T15:57:43.643Z,643.67
2018-02-09T16:00:11.167Z,641.88
2018-02-09T16:02:38.756Z,653.62
2018-02-09T16:05:08.212Z,646.45
2018-02-09T16:07:35.711Z,649.05
2018-02-09T16:10:03.165Z,643.92
2018-02-09T16:12:30.614Z,643.92
2018-02-09T16:14:58.878Z,644.70
2018-02-09T16:17:26.334Z,639.70
2018-02-09T16:19:53.807Z,643.25
2018-02-09T16:22:21.291Z,638.30
2018-02-09T16:24:49.532Z,645.85
2018-02-09T16:27:17.092Z,636.97
2018-02-09T16:29:44.548Z,636.58
2018-02-09T16:32:11.994Z,635.40
2018-02-09T16:34:39.553Z,641.08
2018-02-09T16:37:07.006Z,639.15
2018-02-09T16:39:34.466Z,640.55
2018-02-09T16:42:02.031Z,639.05
2018-02-09T16:44:30.318Z,644.42
2018-02-09T16:46:57.866Z,648.00
2018-02-09T16:49:26.250Z,637.53
2018-02-09T16:51:53.730Z,641.80
2018-02-09T16:54:21.198Z,642.00
2018-02-09T16:56:48.830Z,628.00
2018-02-09T16:59:16.279Z,626.13
2018-02-09T17:01:43.786Z,633.40
2018-02-09T17:04:11.999Z,624.40
2018-02-09T17:06:39.459Z,619.80
2018-02-09T17:09:07.743Z,620.30
2018-02-09T17:11:35.202Z,616.50
2018-02-09T17:14:02.670Z,623.10
2018-02-09T17:16:30.122Z,615.42
2018-02-09T17:18:57.574Z,623.35
2018-02-09T17:21:25.152Z,626.50
2018-02-09T17:23:52.685Z,617.05
2018-02-09T17:26:20.243Z,609.92
2018-02-09T17:28:47.693Z,618.47
2018-02-09T17:31:15.163Z,608.10
2018-02-09T17:33:42.606Z,620.92
2018-02-09T17:36:10.097Z,606.00
2018-02-09T17:38:37.645Z,607.75
2018-02-09T17:41:05.186Z,602.85
2018-02-09T17:43:32.729Z,609.28
2018-02-09T17:46:00.186Z,606.05
2018-02-09T17:48:27.639Z,604.15
2018-02-09T17:50:55.103Z,598.37
2018-02-09T17:53:23.702Z,602.60
2018-02-09T17:55:51.207Z,598.65
2018-02-09T17:58:18.731Z,603.35
2018-02-09T18:00:46.190Z,596.28
2018-02-09T18:03:14.563Z,599.20
2018-02-09T18:05:42.022Z,615.25
2018-02-09T18:08:09.480Z,599.45
2018-02-09T18:10:37.031Z,614.90
2018-02-09T18:13:04.478Z,607.15
2018-02-09T18:15:31.933Z,608.80
2018-02-09T18:17:59.726Z,603.83
2018-02-09T18:20:27.990Z,608.20
2018-02-09T18:22:55.447Z,610.83
2018-02-09T18:25:22.946Z,620.95
2018-02-09T18:27:51.178Z,625.25
2018-02-09T18:30:19.062Z,605.15
2018-02-09T18:32:46.513Z,612.25
2018-02-09T18:35:14.726Z,612.47
2018-02-09T18:37:42.241Z,609.53
2018-02-09T18:40:09.688Z,610.78
2018-02-09T18:42:37.153Z,615.20
2018-02-09T18:45:04.773Z,604.92
2018-02-09T18:47:32.332Z,646.58
2018-02-09T18:49:59.767Z,606.95
2018-02-09T18:52:27.286Z,616.00
2018-02-09T18:54:54.914Z,610.85
2018-02-09T18:57:22.397Z,616.95
2018-02-09T18:59:49.851Z,608.80
2018-02-09T19:02:17.306Z,601.72
2018-02-09T19:04:44.809Z,603.58
2018-02-09T19:07:13.019Z,605.75
2018-02-09T19:09:40.470Z,603.38
2018-02-09T19:12:07.943Z,602.42
2018-02-09T19:14:35.378Z,604.08
2018-02-09T19:17:02.829Z,599.03
2018-02-09T19:19:31.099Z,606.97
2018-02-09T19:21:58.602Z,603.65
2018-02-09T19:24:26.051Z,598.95
2018-02-09T19:26:53.606Z,602.88
2018-02-09T19:29:21.252Z,596.85
2018-02-09T19:31:48.686Z,594.08
2018-02-09T19:34:16.139Z,600.55
2018-02-09T19:36:43.593Z,592.80
2018-02-09T19:39:11.069Z,599.80
2018-02-09T19:41:39.554Z,594.72
2018-02-09T19:44:07.026Z,592.58
2018-02-09T19:46:34.502Z,591.83
2018-02-09T19:49:01.939Z,596.00
2018-02-09T19:51:29.431Z,595.40
2018-02-09T19:53:56.990Z,611.08
2018-02-09T19:56:24.474Z,608.38
2018-02-09T19:58:52.771Z,615.95
2018-02-09T20:01:20.283Z,602.67
2018-02-09T20:03:47.727Z,610.13
2018-02-09T20:06:15.182Z,599.30
2018-02-09T20:08:42.746Z,604.72
2018-02-09T20:11:10.206Z,601.85
2018-02-09T20:13:37.704Z,598.62
2018-02-09T20:16:06.026Z,599.00
2018-02-09T20:18:33.557Z,600.58
2018-02-09T20:21:01.001Z,595.42
2018-02-09T20:23:28.510Z,602.78
2018-02-09T20:25:55.966Z,595.25
2018-02-09T20:28:23.687Z,477.05
2018-02-09T20:30:51.171Z,592.08
2018-02-09T20:33:18.634Z,587.60
2018-02-09T20:35:46.087Z,588.90
2018-02-09T20:38:13.647Z,589.35
2018-02-09T20:40:41.203Z,583.70
2018-02-09T20:43:08.662Z,589.30
2018-02-09T20:45:36.218Z,589.10
2018-02-09T20:48:03.677Z,590.10
2018-02-09T20:50:31.163Z,594.47
2018-02-09T20:52:58.695Z,585.92
2018-02-09T20:55:26.982Z,584.05
2018-02-09T20:57:54.530Z,587.17
2018-02-09T21:00:21.985Z,609.08
2018-02-09T21:02:49.434Z,592.97
2018-02-09T21:05:16.890Z,590.70
2018-02-09T21:07:44.369Z,583.62
2018-02-09T21:10:12.579Z,582.35
2018-02-09T21:12:40.807Z,581.97
2018-02-09T21:15:08.259Z,578.85
2018-02-09T21:17:35.720Z,575.78
2018-02-09T21:20:03.169Z,582.55
2018-02-09T21:22:30.622Z,576.95
2018-02-09T21:24:58.086Z,590.20
2018-02-09T21:27:25.548Z,589.00
2018-02-09T21:29:53.023Z,571.65
2018-02-09T21:32:20.554Z,574.55
2018-02-09T21:34:48.131Z,575.95
2018-02-09T21:37:15.677Z,575.70
2018-02-09T21:39:43.243Z,577.60
2018-02-09T21:42:10.698Z,570.08
2018-02-09T21:44:38.151Z,574.92
2018-02-09T21:47:06.211Z,579.58
2018-02-09T21:49:33.674Z,576.47
2018-02-09T21:52:01.133Z,572.05
2018-02-09T21:54:28.612Z,585.92
2018-02-09T21:56:56.069Z,578.88
2018-02-09T21:59:23.530Z,578.38
2018-02-09T22:01:50.984Z,578.28
2018-02-09T22:04:18.455Z,575.80
2018-02-09T22:06:45.906Z,573.40
2018-02-09T22:09:13.562Z,573.80
2018-02-09T22:11:41.022Z,575.90
2018-02-09T22:14:09.258Z,573.22
2018-02-09T22:16:36.716Z,573.05
2018-02-09T22:19:04.190Z,575.75
2018-02-09T22:21:31.753Z,574.10
2018-02-09T22:23:59.211Z,571.80
2018-02-09T22:26:26.715Z,575.17
2018-02-09T22:28:54.936Z,574.38
2018-02-09T22:31:22.819Z,572.40
2018-02-09T22:33:50.274Z,572.97
2018-02-09T22:36:17.804Z,571.87
2018-02-09T22:38:45.373Z,570.67
2018-02-09T22:41:12.937Z,562.67
2018-02-09T22:43:40.588Z,565.75
2018-02-09T22:46:08.056Z,564.78
2018-02-09T22:48:35.519Z,562.90
2018-02-09T22:51:02.996Z,558.97
2018-02-09T22:53:30.449Z,567.37
2018-02-09T22:55:57.984Z,579.10
2018-02-09T22:58:25.458Z,569.20
2018-02-09T23:00:52.912Z,565.80
2018-02-09T23:03:20.447Z,568.58
2018-02-09T23:05:47.893Z,570.95
2018-02-09T23:08:15.349Z,566.75
2018-02-09T23:10:42.847Z,577.40
2018-02-09T23:13:10.378Z,574.75
2018-02-09T23:15:37.831Z,567.92
2018-02-09T23:18:05.296Z,566.58
2018-02-09T23:20:32.740Z,570.42
2018-02-09T23:23:00.195Z,578.08
2018-02-09T23:25:27.651Z,570.08
2018-02-09T23:27:55.115Z,563.10
2018-02-09T23:30:22.583Z,570.80
2018-02-09T23:32:50.133Z,563.80
2018-02-09T23:35:17.590Z,565.15
2018-02-09T23:37:45.058Z,564.15
2018-02-09T23:40:12.614Z,608.25
2018-02-09T23:42:40.171Z,560.95
2018-02-09T23:45:07.726Z,567.95
2018-02-09T23:47:35.183Z,566.80
2018-02-09T23:50:02.639Z,565.88
2018-02-09T23:52:30.094Z,572.35
2018-02-09T23:54:57.543Z,569.00
2018-02-09T23:57:25.012Z,567.92
2018-02-09T23:59:52.575Z,565.83
